Xekmatt — OR2473 — position and weather

sailwx.info

Track history (hours):
 
Tides and Currents Weather Stations Pressure Air Temp Water Temp Dewpoint Dewpoint Depression Visibility Wind Speed Wind Dir Waves Ship Positions

Xekmatt

Last reported at 2017-Jul-03 13:57 UTC. Time now 2017-Jul-23 18:39 UTC.
Position N 38°42' W 009°14'.
Warning: this ship's position is 20 days out of date.

Length 14 m.

Type: Sailing vessel. MMSI: 205247310.

Date/timePositionNaut miles runAvg speedWind from/ knotsBaromVisibWave heightAir tempDewpointWater temp
2017-Jul-03 13:57N 38°42' W 009°14'3 6.1
2017-Jul-03 13:30N 38°41' W 009°18'3 6.2
2017-Jul-03 12:58N 38°38' W 009°18'3 7.2
2017-Jul-03 12:30N 38°35' W 009°18'4 7.3
2017-Jul-03 12:00N 38°31' W 009°17'4 6.8
2017-Jul-03 11:23N 38°27' W 009°16'15 6.7
2017-Jul-03 09:11N 38°12' W 009°13'1 6.8
2017-Jul-03 09:00N 38°11' W 009°12'3 6.8
2017-Jul-03 08:30N 38°08' W 009°11'4 7.5
2017-Jul-03 08:00N 38°04' W 009°10'4 7.3
2017-Jul-03 07:30N 38°00' W 009°09'4 7.2
2017-Jul-03 07:00N 37°57' W 009°08'4 7.1
2017-Jul-03 06:30N 37°54' W 009°07'4 7.4
2017-Jul-03 05:59N 37°50' W 009°07'50 5.0
2017-Jul-02 20:01N 37°05' W 008°40'1 6.1
2017-Jul-02 19:52N 37°05' W 008°39'1 3.8
2017-Jul-02 19:30N 37°06' W 008°40'1 0.1
2017-Jul-02 13:56N 37°06' W 008°40'1 1.6
2017-Jul-02 13:25N 37°06' W 008°39'0 0.2
2017-Jul-02 12:45N 37°06' W 008°39'0 0.6
2017-Jul-02 12:29N 37°06' W 008°39'0 0.2
2017-Jul-02 11:51N 37°06' W 008°39'0 0.1
2017-Jul-02 11:21N 37°06' W 008°39'0 0.5
2017-Jul-02 11:01N 37°06' W 008°39'0 0.8
2017-Jul-02 10:29N 37°06' W 008°40'1 0.0
2017-Jul-01 17:52N 37°06' W 008°40'2 1.2
2017-Jul-01 16:20N 37°06' W 008°38'1 3.2
2017-Jul-01 16:00N 37°06' W 008°39'1 2.1
2017-Jul-01 15:22N 37°05' W 008°38'0 0.4
2017-Jul-01 15:00N 37°05' W 008°38'0 0.1
2017-Jul-01 12:59N 37°05' W 008°38'0 0.4
2017-Jul-01 11:54N 37°05' W 008°38'0 0.2
2017-Jul-01 11:30N 37°05' W 008°38'0 0.4
2017-Jul-01 10:59N 37°05' W 008°38'1 3.0
2017-Jul-01 10:30N 37°06' W 008°39'0 0.5
2017-Jul-01 10:00N 37°06' W 008°40'1 0.0
2017-Jun-30 16:57N 37°06' W 008°40'4 3.0
2017-Jun-30 15:40N 37°05' W 008°36'1 5.6
2017-Jun-30 15:30N 37°06' W 008°35'3 5.7
2017-Jun-30 14:58N 37°06' W 008°39'1 0.0
2017-Jun-29 09:34N 37°06' W 008°40'0 0.0
2017-Jun-29 09:22N 37°06' W 008°40'80 5.6
2017-Jun-28 19:00N 38°21' W 009°18'5 8.8
2017-Jun-28 18:28N 38°26' W 009°19'4 9.0
2017-Jun-28 17:59N 38°30' W 009°19'4 8.6
2017-Jun-28 17:29N 38°34' W 009°19'4 7.8
2017-Jun-28 16:58N 38°38' W 009°19'3 5.6
2017-Jun-28 16:30N 38°41' W 009°17'4 5.8
2017-Jun-28 15:51N 38°42' W 009°13'0 0.8
2017-Jun-28 15:30N 38°42' W 009°12'  
2017-Jun-23 19:23N 38°42' W 009°11'0 0.7
2017-Jun-23 18:55N 38°42' W 009°11'1 1.7
2017-Jun-23 18:30N 38°41' W 009°11'  
Track history (hours):
 
Tides and Currents Weather Stations Pressure Air Temp Water Temp Dewpoint Dewpoint Depression Visibility Wind Speed Wind Dir Waves Ship Positions

Xekmatt

Last reported at 2017-Jul-03 13:57 UTC. Time now 2017-Jul-23 18:39 UTC.
Position N 38°42' W 009°14'.
Warning: this ship's position is 20 days out of date.

Length 14 m.

Type: Sailing vessel. MMSI: 205247310.

Date/timePositionNaut miles runAvg speedWind from/ knotsBaromVisibWave heightAir tempDewpointWater temp
2017-Jul-03 13:57N 38°42' W 009°14'3 6.1
2017-Jul-03 13:30N 38°41' W 009°18'3 6.2
2017-Jul-03 12:58N 38°38' W 009°18'3 7.2
2017-Jul-03 12:30N 38°35' W 009°18'4 7.3
2017-Jul-03 12:00N 38°31' W 009°17'4 6.8
2017-Jul-03 11:23N 38°27' W 009°16'15 6.7
2017-Jul-03 09:11N 38°12' W 009°13'1 6.8
2017-Jul-03 09:00N 38°11' W 009°12'3 6.8
2017-Jul-03 08:30N 38°08' W 009°11'4 7.5
2017-Jul-03 08:00N 38°04' W 009°10'4 7.3
2017-Jul-03 07:30N 38°00' W 009°09'4 7.2
2017-Jul-03 07:00N 37°57' W 009°08'4 7.1
2017-Jul-03 06:30N 37°54' W 009°07'4 7.4
2017-Jul-03 05:59N 37°50' W 009°07'50 5.0
2017-Jul-02 20:01N 37°05' W 008°40'1 6.1
2017-Jul-02 19:52N 37°05' W 008°39'1 3.8
2017-Jul-02 19:30N 37°06' W 008°40'1 0.1
2017-Jul-02 13:56N 37°06' W 008°40'1 1.6
2017-Jul-02 13:25N 37°06' W 008°39'0 0.2
2017-Jul-02 12:45N 37°06' W 008°39'0 0.6
2017-Jul-02 12:29N 37°06' W 008°39'0 0.2
2017-Jul-02 11:51N 37°06' W 008°39'0 0.1
2017-Jul-02 11:21N 37°06' W 008°39'0 0.5
2017-Jul-02 11:01N 37°06' W 008°39'0 0.8
2017-Jul-02 10:29N 37°06' W 008°40'1 0.0
2017-Jul-01 17:52N 37°06' W 008°40'2 1.2
2017-Jul-01 16:20N 37°06' W 008°38'1 3.2
2017-Jul-01 16:00N 37°06' W 008°39'1 2.1
2017-Jul-01 15:22N 37°05' W 008°38'0 0.4
2017-Jul-01 15:00N 37°05' W 008°38'0 0.1
2017-Jul-01 12:59N 37°05' W 008°38'0 0.4
2017-Jul-01 11:54N 37°05' W 008°38'0 0.2
2017-Jul-01 11:30N 37°05' W 008°38'0 0.4
2017-Jul-01 10:59N 37°05' W 008°38'1 3.0
2017-Jul-01 10:30N 37°06' W 008°39'0 0.5
2017-Jul-01 10:00N 37°06' W 008°40'1 0.0
2017-Jun-30 16:57N 37°06' W 008°40'4 3.0
2017-Jun-30 15:40N 37°05' W 008°36'1 5.6
2017-Jun-30 15:30N 37°06' W 008°35'3 5.7
2017-Jun-30 14:58N 37°06' W 008°39'1 0.0
2017-Jun-29 09:34N 37°06' W 008°40'0 0.0
2017-Jun-29 09:22N 37°06' W 008°40'80 5.6
2017-Jun-28 19:00N 38°21' W 009°18'5 8.8
2017-Jun-28 18:28N 38°26' W 009°19'4 9.0
2017-Jun-28 17:59N 38°30' W 009°19'4 8.6
2017-Jun-28 17:29N 38°34' W 009°19'4 7.8
2017-Jun-28 16:58N 38°38' W 009°19'3 5.6
2017-Jun-28 16:30N 38°41' W 009°17'4 5.8
2017-Jun-28 15:51N 38°42' W 009°13'0 0.8
2017-Jun-28 15:30N 38°42' W 009°12'  
2017-Jun-23 19:23N 38°42' W 009°11'0 0.7
2017-Jun-23 18:55N 38°42' W 009°11'1 1.7
2017-Jun-23 18:30N 38°41' W 009°11'  

Dump ship's entire track history